sensor_id;sensor_type;location;lat;lon;timestamp;pressure;altitude;pressure_sealevel;temperature
69007;BMP180;56061;51.748;19.620;2023-05-13T00:02:01;99626.40;;;8.10
69007;BMP180;56061;51.748;19.620;2023-05-13T00:04:27;99628.60;;;8.06
69007;BMP180;56061;51.748;19.620;2023-05-13T00:06:54;99629.00;;;8.00
69007;BMP180;56061;51.748;19.620;2023-05-13T00:09:20;99629.60;;;8.00
69007;BMP180;56061;51.748;19.620;2023-05-13T00:11:47;99631.20;;;8.00
69007;BMP180;56061;51.748;19.620;2023-05-13T00:14:13;99631.40;;;8.00
69007;BMP180;56061;51.748;19.620;2023-05-13T00:16:39;99629.60;;;8.00
69007;BMP180;56061;51.748;19.620;2023-05-13T00:19:06;99631.20;;;8.00
69007;BMP180;56061;51.748;19.620;2023-05-13T00:21:33;99627.60;;;8.00
69007;BMP180;56061;51.748;19.620;2023-05-13T00:24:00;99628.60;;;8.00
69007;BMP180;56061;51.748;19.620;2023-05-13T00:26:26;99628.60;;;8.00
69007;BMP180;56061;51.748;19.620;2023-05-13T00:28:52;99630.00;;;8.00
69007;BMP180;56061;51.748;19.620;2023-05-13T00:31:19;99633.00;;;8.00
69007;BMP180;56061;51.748;19.620;2023-05-13T00:33:45;99630.20;;;7.90
69007;BMP180;56061;51.748;19.620;2023-05-13T00:36:12;99629.20;;;7.90
69007;BMP180;56061;51.748;19.620;2023-05-13T00:38:38;99630.60;;;7.84
69007;BMP180;56061;51.748;19.620;2023-05-13T00:41:05;99634.20;;;7.80
69007;BMP180;56061;51.748;19.620;2023-05-13T00:43:32;99636.40;;;7.80
69007;BMP180;56061;51.748;19.620;2023-05-13T00:45:58;99630.40;;;7.80
69007;BMP180;56061;51.748;19.620;2023-05-13T00:48:25;99632.40;;;7.76
69007;BMP180;56061;51.748;19.620;2023-05-13T00:50:52;99634.00;;;7.70
69007;BMP180;56061;51.748;19.620;2023-05-13T00:53:18;99634.00;;;7.70
69007;BMP180;56061;51.748;19.620;2023-05-13T00:55:45;99634.80;;;7.64
69007;BMP180;56061;51.748;19.620;2023-05-13T00:58:12;99641.40;;;7.60
69007;BMP180;56061;51.748;19.620;2023-05-13T01:01:00;99640.00;;;7.60
69007;BMP180;56061;51.748;19.620;2023-05-13T01:11:54;99642.20;;;7.50
69007;BMP180;56061;51.748;19.620;2023-05-13T01:14:26;99644.40;;;7.50
69007;BMP180;56061;51.748;19.620;2023-05-13T01:17:06;99647.20;;;7.50
69007;BMP180;56061;51.748;19.620;2023-05-13T01:19:51;99649.60;;;7.56
69007;BMP180;56061;51.748;19.620;2023-05-13T01:22:18;99653.20;;;7.54
69007;BMP180;56061;51.748;19.620;2023-05-13T01:24:44;99651.80;;;7.52
69007;BMP180;56061;51.748;19.620;2023-05-13T01:27:11;99648.00;;;7.50
69007;BMP180;56061;51.748;19.620;2023-05-13T01:29:39;99646.60;;;7.50
69007;BMP180;56061;51.748;19.620;2023-05-13T01:32:08;99649.60;;;7.50
69007;BMP180;56061;51.748;19.620;2023-05-13T01:34:37;99649.60;;;7.50
69007;BMP180;56061;51.748;19.620;2023-05-13T01:37:05;99650.40;;;7.50
69007;BMP180;56061;51.748;19.620;2023-05-13T01:39:32;99650.00;;;7.42
69007;BMP180;56061;51.748;19.620;2023-05-13T01:42:00;99652.80;;;7.40
69007;BMP180;56061;51.748;19.620;2023-05-13T01:44:27;99649.80;;;7.40
69007;BMP180;56061;51.748;19.620;2023-05-13T01:46:53;99649.00;;;7.40
69007;BMP180;56061;51.748;19.620;2023-05-13T01:49:20;99650.00;;;7.40
69007;BMP180;56061;51.748;19.620;2023-05-13T01:51:47;99648.00;;;7.40
69007;BMP180;56061;51.748;19.620;2023-05-13T01:54:13;99648.80;;;7.38
69007;BMP180;56061;51.748;19.620;2023-05-13T01:56:39;99649.40;;;7.30
69007;BMP180;56061;51.748;19.620;2023-05-13T01:59:09;99653.00;;;7.30
69007;BMP180;56061;51.748;19.620;2023-05-13T02:01:36;99649.00;;;7.30
69007;BMP180;56061;51.748;19.620;2023-05-13T02:04:02;99651.40;;;7.30
69007;BMP180;56061;51.748;19.620;2023-05-13T02:06:29;99649.40;;;7.30
69007;BMP180;56061;51.748;19.620;2023-05-13T02:08:57;99649.60;;;7.30
69007;BMP180;56061;51.748;19.620;2023-05-13T02:11:24;99649.00;;;7.30
69007;BMP180;56061;51.748;19.620;2023-05-13T02:13:50;99650.00;;;7.30
69007;BMP180;56061;51.748;19.620;2023-05-13T02:16:18;99648.00;;;7.28
69007;BMP180;56061;51.748;19.620;2023-05-13T02:18:45;99646.40;;;7.20
69007;BMP180;56061;51.748;19.620;2023-05-13T02:21:11;99644.60;;;7.20
69007;BMP180;56061;51.748;19.620;2023-05-13T02:23:38;99646.60;;;7.20
69007;BMP180;56061;51.748;19.620;2023-05-13T02:26:04;99646.20;;;7.20
69007;BMP180;56061;51.748;19.620;2023-05-13T02:28:31;99647.20;;;7.12
69007;BMP180;56061;51.748;19.620;2023-05-13T02:30:57;99648.60;;;7.10
69007;BMP180;56061;51.748;19.620;2023-05-13T02:33:23;99654.60;;;7.10
69007;BMP180;56061;51.748;19.620;2023-05-13T02:35:50;99649.20;;;7.00
69007;BMP180;56061;51.748;19.620;2023-05-13T02:38:16;99653.00;;;7.00
69007;BMP180;56061;51.748;19.620;2023-05-13T02:40:43;99651.80;;;7.00
69007;BMP180;56061;51.748;19.620;2023-05-13T02:43:09;99654.40;;;6.90
69007;BMP180;56061;51.748;19.620;2023-05-13T02:45:38;99654.80;;;6.90
69007;BMP180;56061;51.748;19.620;2023-05-13T02:48:06;99653.00;;;6.88
69007;BMP180;56061;51.748;19.620;2023-05-13T02:50:33;99657.00;;;6.82
69007;BMP180;56061;51.748;19.620;2023-05-13T02:52:59;99655.00;;;6.82
69007;BMP180;56061;51.748;19.620;2023-05-13T02:55:26;99657.20;;;6.88
69007;BMP180;56061;51.748;19.620;2023-05-13T02:57:53;99654.40;;;6.90
69007;BMP180;56061;51.748;19.620;2023-05-13T03:00:19;99656.80;;;6.90
69007;BMP180;56061;51.748;19.620;2023-05-13T03:02:46;99656.20;;;6.90
69007;BMP180;56061;51.748;19.620;2023-05-13T03:05:13;99657.40;;;6.90
69007;BMP180;56061;51.748;19.620;2023-05-13T03:07:39;99654.80;;;6.90
69007;BMP180;56061;51.748;19.620;2023-05-13T03:10:06;99658.40;;;6.90
69007;BMP180;56061;51.748;19.620;2023-05-13T03:12:33;99655.40;;;6.90
69007;BMP180;56061;51.748;19.620;2023-05-13T03:15:00;99655.40;;;6.90
69007;BMP180;56061;51.748;19.620;2023-05-13T03:17:26;99651.40;;;6.90
69007;BMP180;56061;51.748;19.620;2023-05-13T03:19:56;99657.20;;;6.90
69007;BMP180;56061;51.748;19.620;2023-05-13T03:22:23;99653.40;;;6.98
69007;BMP180;56061;51.748;19.620;2023-05-13T03:24:49;99657.00;;;7.00
69007;BMP180;56061;51.748;19.620;2023-05-13T03:27:15;99661.20;;;7.00
69007;BMP180;56061;51.748;19.620;2023-05-13T03:29:42;99654.80;;;7.00
69007;BMP180;56061;51.748;19.620;2023-05-13T03:32:08;99659.40;;;7.10
69007;BMP180;56061;51.748;19.620;2023-05-13T03:34:35;99656.00;;;7.10
69007;BMP180;56061;51.748;19.620;2023-05-13T03:37:03;99659.80;;;7.16
69007;BMP180;56061;51.748;19.620;2023-05-13T03:39:30;99662.60;;;7.20
69007;BMP180;56061;51.748;19.620;2023-05-13T03:41:56;99661.80;;;7.30
69007;BMP180;56061;51.748;19.620;2023-05-13T03:44:23;99660.00;;;7.34
69007;BMP180;56061;51.748;19.620;2023-05-13T03:46:49;99666.60;;;7.40
69007;BMP180;56061;51.748;19.620;2023-05-13T03:49:16;99667.20;;;7.50
69007;BMP180;56061;51.748;19.620;2023-05-13T03:51:44;99669.00;;;7.50
69007;BMP180;56061;51.748;19.620;2023-05-13T03:54:10;99668.00;;;7.60
69007;BMP180;56061;51.748;19.620;2023-05-13T03:56:37;99672.20;;;7.68
69007;BMP180;56061;51.748;19.620;2023-05-13T03:59:03;99672.60;;;7.70
69007;BMP180;56061;51.748;19.620;2023-05-13T04:01:29;99677.00;;;7.80
69007;BMP180;56061;51.748;19.620;2023-05-13T04:03:56;99678.00;;;7.80
69007;BMP180;56061;51.748;19.620;2023-05-13T04:06:22;99687.00;;;7.90
69007;BMP180;56061;51.748;19.620;2023-05-13T04:08:50;99690.40;;;8.00
69007;BMP180;56061;51.748;19.620;2023-05-13T04:11:16;99691.20;;;8.00
69007;BMP180;56061;51.748;19.620;2023-05-13T04:13:43;99695.80;;;8.10
69007;BMP180;56061;51.748;19.620;2023-05-13T04:16:11;99694.40;;;8.20
69007;BMP180;56061;51.748;19.620;2023-05-13T04:18:37;99695.20;;;8.30
69007;BMP180;56061;51.748;19.620;2023-05-13T04:21:06;99695.20;;;8.40
69007;BMP180;56061;51.748;19.620;2023-05-13T04:23:32;99697.00;;;8.46
69007;BMP180;56061;51.748;19.620;2023-05-13T04:25:59;99691.80;;;8.52
69007;BMP180;56061;51.748;19.620;2023-05-13T04:28:25;99696.20;;;8.70
69007;BMP180;56061;51.748;19.620;2023-05-13T04:30:52;99698.80;;;8.80
69007;BMP180;56061;51.748;19.620;2023-05-13T04:33:19;99694.20;;;8.90
69007;BMP180;56061;51.748;19.620;2023-05-13T04:35:46;99695.40;;;9.02
69007;BMP180;56061;51.748;19.620;2023-05-13T04:38:12;99693.40;;;9.18
69007;BMP180;56061;51.748;19.620;2023-05-13T04:40:39;99692.40;;;9.30
69007;BMP180;56061;51.748;19.620;2023-05-13T04:43:05;99689.60;;;9.40
69007;BMP180;56061;51.748;19.620;2023-05-13T04:45:32;99690.40;;;9.50
69007;BMP180;56061;51.748;19.620;2023-05-13T04:47:58;99693.40;;;9.60
69007;BMP180;56061;51.748;19.620;2023-05-13T04:50:25;99695.40;;;9.70
69007;BMP180;56061;51.748;19.620;2023-05-13T04:52:52;99691.20;;;9.80
69007;BMP180;56061;51.748;19.620;2023-05-13T04:55:20;99700.20;;;9.90
69007;BMP180;56061;51.748;19.620;2023-05-13T04:57:47;99704.40;;;10.00
69007;BMP180;56061;51.748;19.620;2023-05-13T05:00:14;99695.20;;;10.10
69007;BMP180;56061;51.748;19.620;2023-05-13T05:02:41;99701.20;;;10.20
69007;BMP180;56061;51.748;19.620;2023-05-13T05:05:08;99693.60;;;10.30
69007;BMP180;56061;51.748;19.620;2023-05-13T05:07:34;99700.80;;;10.40
69007;BMP180;56061;51.748;19.620;2023-05-13T05:10:08;99704.20;;;10.50
69007;BMP180;56061;51.748;19.620;2023-05-13T05:12:34;99707.00;;;10.68
69007;BMP180;56061;51.748;19.620;2023-05-13T05:15:04;99711.00;;;10.80
69007;BMP180;56061;51.748;19.620;2023-05-13T05:17:31;99712.60;;;10.90
69007;BMP180;56061;51.748;19.620;2023-05-13T05:19:59;99716.80;;;11.00
69007;BMP180;56061;51.748;19.620;2023-05-13T05:22:25;99713.60;;;11.14
69007;BMP180;56061;51.748;19.620;2023-05-13T05:24:52;99715.80;;;11.30
69007;BMP180;56061;51.748;19.620;2023-05-13T05:27:18;99716.20;;;11.40
69007;BMP180;56061;51.748;19.620;2023-05-13T05:29:45;99711.60;;;11.60
69007;BMP180;56061;51.748;19.620;2023-05-13T05:32:11;99712.40;;;11.70
69007;BMP180;56061;51.748;19.620;2023-05-13T05:34:38;99709.40;;;11.90
69007;BMP180;56061;51.748;19.620;2023-05-13T05:37:05;99708.40;;;12.00
69007;BMP180;56061;51.748;19.620;2023-05-13T05:39:31;99710.80;;;12.20
69007;BMP180;56061;51.748;19.620;2023-05-13T05:41:58;99712.80;;;12.40
69007;BMP180;56061;51.748;19.620;2023-05-13T05:44:24;99712.00;;;12.54
69007;BMP180;56061;51.748;19.620;2023-05-13T05:46:50;99712.20;;;12.70
69007;BMP180;56061;51.748;19.620;2023-05-13T05:49:18;99714.20;;;12.90
69007;BMP180;56061;51.748;19.620;2023-05-13T05:51:44;99714.80;;;13.10
69007;BMP180;56061;51.748;19.620;2023-05-13T05:54:11;99713.40;;;13.20
69007;BMP180;56061;51.748;19.620;2023-05-13T05:56:37;99713.20;;;13.40
69007;BMP180;56061;51.748;19.620;2023-05-13T05:59:03;99712.00;;;13.50
69007;BMP180;56061;51.748;19.620;2023-05-13T06:01:30;99715.20;;;13.70
69007;BMP180;56061;51.748;19.620;2023-05-13T06:04:02;99709.60;;;13.80
69007;BMP180;56061;51.748;19.620;2023-05-13T06:06:29;99708.60;;;13.98
69007;BMP180;56061;51.748;19.620;2023-05-13T06:08:56;99713.40;;;14.10
69007;BMP180;56061;51.748;19.620;2023-05-13T06:11:22;99716.00;;;14.20
69007;BMP180;56061;51.748;19.620;2023-05-13T06:13:49;99714.80;;;14.40
69007;BMP180;56061;51.748;19.620;2023-05-13T06:16:16;99712.20;;;14.50
69007;BMP180;56061;51.748;19.620;2023-05-13T06:18:42;99711.00;;;14.60
69007;BMP180;56061;51.748;19.620;2023-05-13T06:21:09;99704.80;;;14.76
69007;BMP180;56061;51.748;19.620;2023-05-13T06:23:36;99710.60;;;14.90
69007;BMP180;56061;51.748;19.620;2023-05-13T06:26:03;99709.80;;;15.00
69007;BMP180;56061;51.748;19.620;2023-05-13T06:28:29;99705.80;;;15.10
69007;BMP180;56061;51.748;19.620;2023-05-13T06:30:56;99709.20;;;15.20
69007;BMP180;56061;51.748;19.620;2023-05-13T06:33:22;99712.60;;;15.40
69007;BMP180;56061;51.748;19.620;2023-05-13T06:35:49;99708.40;;;15.50
69007;BMP180;56061;51.748;19.620;2023-05-13T06:38:15;99713.00;;;15.60
69007;BMP180;56061;51.748;19.620;2023-05-13T06:40:44;99709.80;;;15.76
69007;BMP180;56061;51.748;19.620;2023-05-13T06:43:11;99714.40;;;15.90
69007;BMP180;56061;51.748;19.620;2023-05-13T06:45:39;99712.20;;;16.00
69007;BMP180;56061;51.748;19.620;2023-05-13T06:48:06;99713.20;;;16.10
69007;BMP180;56061;51.748;19.620;2023-05-13T06:50:32;99706.60;;;16.20
69007;BMP180;56061;51.748;19.620;2023-05-13T06:52:59;99712.80;;;16.30
69007;BMP180;56061;51.748;19.620;2023-05-13T06:55:25;99712.60;;;16.40
69007;BMP180;56061;51.748;19.620;2023-05-13T06:57:52;99711.00;;;16.50
69007;BMP180;56061;51.748;19.620;2023-05-13T07:00:19;99710.20;;;16.54
69007;BMP180;56061;51.748;19.620;2023-05-13T07:02:46;99715.60;;;16.70
69007;BMP180;56061;51.748;19.620;2023-05-13T07:05:12;99715.80;;;16.76
69007;BMP180;56061;51.748;19.620;2023-05-13T07:07:39;99716.40;;;16.82
69007;BMP180;56061;51.748;19.620;2023-05-13T07:10:06;99713.60;;;16.90
69007;BMP180;56061;51.748;19.620;2023-05-13T07:12:32;99711.80;;;16.98
69007;BMP180;56061;51.748;19.620;2023-05-13T07:14:59;99714.20;;;17.00
69007;BMP180;56061;51.748;19.620;2023-05-13T07:17:25;99715.80;;;17.00
69007;BMP180;56061;51.748;19.620;2023-05-13T07:19:52;99714.00;;;17.10
69007;BMP180;56061;51.748;19.620;2023-05-13T07:22:18;99707.40;;;17.10
69007;BMP180;56061;51.748;19.620;2023-05-13T07:24:45;99713.00;;;17.20
69007;BMP180;56061;51.748;19.620;2023-05-13T07:27:11;99706.40;;;17.30
69007;BMP180;56061;51.748;19.620;2023-05-13T07:29:38;99707.20;;;17.30
69007;BMP180;56061;51.748;19.620;2023-05-13T07:32:05;99705.60;;;17.40
69007;BMP180;56061;51.748;19.620;2023-05-13T07:34:32;99701.00;;;17.50
69007;BMP180;56061;51.748;19.620;2023-05-13T07:36:58;99701.60;;;17.58
69007;BMP180;56061;51.748;19.620;2023-05-13T07:39:25;99701.80;;;17.60
69007;BMP180;56061;51.748;19.620;2023-05-13T07:41:52;99701.60;;;17.70
69007;BMP180;56061;51.748;19.620;2023-05-13T07:44:18;99697.20;;;17.80
69007;BMP180;56061;51.748;19.620;2023-05-13T07:46:45;99698.40;;;17.90
69007;BMP180;56061;51.748;19.620;2023-05-13T07:49:11;99697.80;;;17.92
69007;BMP180;56061;51.748;19.620;2023-05-13T07:51:38;99693.40;;;18.00
69007;BMP180;56061;51.748;19.620;2023-05-13T07:54:04;99695.40;;;18.00
69007;BMP180;56061;51.748;19.620;2023-05-13T07:56:31;99697.80;;;18.10
69007;BMP180;56061;51.748;19.620;2023-05-13T07:58:57;99691.60;;;18.20
69007;BMP180;56061;51.748;19.620;2023-05-13T08:01:24;99698.60;;;18.30
69007;BMP180;56061;51.748;19.620;2023-05-13T08:03:50;99693.80;;;18.30
69007;BMP180;56061;51.748;19.620;2023-05-13T08:06:17;99700.80;;;18.40
69007;BMP180;56061;51.748;19.620;2023-05-13T08:08:43;99701.20;;;18.40
69007;BMP180;56061;51.748;19.620;2023-05-13T08:11:10;99693.60;;;18.40
69007;BMP180;56061;51.748;19.620;2023-05-13T08:13:36;99698.60;;;18.40
69007;BMP180;56061;51.748;19.620;2023-05-13T08:16:04;99697.60;;;18.40
69007;BMP180;56061;51.748;19.620;2023-05-13T08:18:32;99695.00;;;18.50
69007;BMP180;56061;51.748;19.620;2023-05-13T08:20:59;99696.80;;;18.50
69007;BMP180;56061;51.748;19.620;2023-05-13T08:23:25;99693.60;;;18.56
69007;BMP180;56061;51.748;19.620;2023-05-13T08:26:09;99694.00;;;18.60
69007;BMP180;56061;51.748;19.620;2023-05-13T08:28:36;99698.20;;;18.60
69007;BMP180;56061;51.748;19.620;2023-05-13T08:31:03;99698.80;;;18.62
69007;BMP180;56061;51.748;19.620;2023-05-13T08:33:31;99695.40;;;18.70
69007;BMP180;56061;51.748;19.620;2023-05-13T08:35:59;99698.00;;;18.80
69007;BMP180;56061;51.748;19.620;2023-05-13T08:38:26;99688.60;;;18.90
69007;BMP180;56061;51.748;19.620;2023-05-13T08:40:52;99695.40;;;19.00
69007;BMP180;56061;51.748;19.620;2023-05-13T08:43:20;99690.80;;;19.10
69007;BMP180;56061;51.748;19.620;2023-05-13T08:45:50;99683.40;;;19.10
69007;BMP180;56061;51.748;19.620;2023-05-13T08:48:19;99691.40;;;19.10
69007;BMP180;56061;51.748;19.620;2023-05-13T08:50:47;99690.00;;;19.20
69007;BMP180;56061;51.748;19.620;2023-05-13T08:53:16;99689.00;;;19.20
69007;BMP180;56061;51.748;19.620;2023-05-13T08:55:44;99693.20;;;19.26
69007;BMP180;56061;51.748;19.620;2023-05-13T08:58:10;99691.00;;;19.30
69007;BMP180;56061;51.748;19.620;2023-05-13T09:00:39;99689.40;;;19.40
69007;BMP180;56061;51.748;19.620;2023-05-13T09:03:05;99686.80;;;19.40
69007;BMP180;56061;51.748;19.620;2023-05-13T09:05:33;99687.40;;;19.50
69007;BMP180;56061;51.748;19.620;2023-05-13T09:08:07;99686.80;;;19.50
69007;BMP180;56061;51.748;19.620;2023-05-13T09:10:36;99686.20;;;19.50
69007;BMP180;56061;51.748;19.620;2023-05-13T09:13:03;99685.20;;;19.60
69007;BMP180;56061;51.748;19.620;2023-05-13T09:15:30;99682.20;;;19.62
69007;BMP180;56061;51.748;19.620;2023-05-13T09:18:05;99684.60;;;19.70
69007;BMP180;56061;51.748;19.620;2023-05-13T09:20:32;99682.40;;;19.70
69007;BMP180;56061;51.748;19.620;2023-05-13T09:23:03;99678.60;;;19.70
69007;BMP180;56061;51.748;19.620;2023-05-13T09:25:31;99671.00;;;19.80
69007;BMP180;56061;51.748;19.620;2023-05-13T09:28:01;99670.80;;;19.90
69007;BMP180;56061;51.748;19.620;2023-05-13T09:30:37;99663.20;;;19.96
69007;BMP180;56061;51.748;19.620;2023-05-13T09:33:11;99664.20;;;20.00
69007;BMP180;56061;51.748;19.620;2023-05-13T09:35:51;99661.20;;;20.00
69007;BMP180;56061;51.748;19.620;2023-05-13T09:38:21;99657.60;;;20.10
69007;BMP180;56061;51.748;19.620;2023-05-13T09:40:51;99655.60;;;20.20
69007;BMP180;56061;51.748;19.620;2023-05-13T09:43:20;99651.80;;;20.36
69007;BMP180;56061;51.748;19.620;2023-05-13T09:45:55;99652.60;;;20.50
69007;BMP180;56061;51.748;19.620;2023-05-13T09:48:28;99649.80;;;20.68
69007;BMP180;56061;51.748;19.620;2023-05-13T09:50:55;99652.80;;;20.72
69007;BMP180;56061;51.748;19.620;2023-05-13T09:53:25;99655.40;;;20.80
69007;BMP180;56061;51.748;19.620;2023-05-13T09:55:55;99656.60;;;20.90
69007;BMP180;56061;51.748;19.620;2023-05-13T09:58:24;99656.80;;;20.80
69007;BMP180;56061;51.748;19.620;2023-05-13T10:00:53;99655.00;;;20.70
69007;BMP180;56061;51.748;19.620;2023-05-13T10:03:21;99648.60;;;20.60
69007;BMP180;56061;51.748;19.620;2023-05-13T10:05:48;99649.20;;;20.50
69007;BMP180;56061;51.748;19.620;2023-05-13T10:08:17;99643.20;;;20.40
69007;BMP180;56061;51.748;19.620;2023-05-13T10:10:45;99650.80;;;20.40
69007;BMP180;56061;51.748;19.620;2023-05-13T10:13:15;99646.40;;;20.40
69007;BMP180;56061;51.748;19.620;2023-05-13T10:15:51;99643.20;;;20.40
69007;BMP180;56061;51.748;19.620;2023-05-13T10:18:20;99646.00;;;20.40
69007;BMP180;56061;51.748;19.620;2023-05-13T10:20:47;99638.80;;;20.40
69007;BMP180;56061;51.748;19.620;2023-05-13T10:23:21;99635.60;;;20.42
69007;BMP180;56061;51.748;19.620;2023-05-13T10:25:50;99640.80;;;20.50
69007;BMP180;56061;51.748;19.620;2023-05-13T10:28:17;99637.20;;;20.60
69007;BMP180;56061;51.748;19.620;2023-05-13T10:30:44;99640.00;;;20.80
69007;BMP180;56061;51.748;19.620;2023-05-13T10:33:12;99641.80;;;20.90
69007;BMP180;56061;51.748;19.620;2023-05-13T10:35:49;99636.40;;;21.00
69007;BMP180;56061;51.748;19.620;2023-05-13T10:38:55;99634.40;;;21.08
69007;BMP180;56061;51.748;19.620;2023-05-13T10:44:46;99638.00;;;21.22
69007;BMP180;56061;51.748;19.620;2023-05-13T10:47:17;99637.20;;;21.20
69007;BMP180;56061;51.748;19.620;2023-05-13T10:49:52;99629.80;;;21.26
69007;BMP180;56061;51.748;19.620;2023-05-13T10:52:18;99631.20;;;21.20
69007;BMP180;56061;51.748;19.620;2023-05-13T10:54:59;99641.00;;;21.10
69007;BMP180;56061;51.748;19.620;2023-05-13T10:57:34;99636.40;;;20.86
69007;BMP180;56061;51.748;19.620;2023-05-13T11:00:15;99634.00;;;20.70
69007;BMP180;56061;51.748;19.620;2023-05-13T11:02:42;99628.60;;;20.60
69007;BMP180;56061;51.748;19.620;2023-05-13T11:05:19;99631.20;;;20.60
69007;BMP180;56061;51.748;19.620;2023-05-13T11:07:56;99634.40;;;20.70
69007;BMP180;56061;51.748;19.620;2023-05-13T11:10:28;99622.80;;;20.80
69007;BMP180;56061;51.748;19.620;2023-05-13T11:13:19;99628.80;;;20.80
69007;BMP180;56061;51.748;19.620;2023-05-13T11:15:52;99622.40;;;20.80
69007;BMP180;56061;51.748;19.620;2023-05-13T11:18:28;99621.20;;;20.90
69007;BMP180;56061;51.748;19.620;2023-05-13T11:20:55;99619.60;;;20.90
69007;BMP180;56061;51.748;19.620;2023-05-13T11:23:21;99627.20;;;21.02
69007;BMP180;56061;51.748;19.620;2023-05-13T11:26:12;99631.20;;;21.16
69007;BMP180;56061;51.748;19.620;2023-05-13T11:29:04;99626.60;;;21.20
69007;BMP180;56061;51.748;19.620;2023-05-13T11:31:45;99625.40;;;21.10
69007;BMP180;56061;51.748;19.620;2023-05-13T11:34:16;99626.20;;;21.10
69007;BMP180;56061;51.748;19.620;2023-05-13T11:39:31;99626.80;;;21.10
69007;BMP180;56061;51.748;19.620;2023-05-13T11:41:59;99626.20;;;21.10
69007;BMP180;56061;51.748;19.620;2023-05-13T11:44:33;99622.40;;;21.12
69007;BMP180;56061;51.748;19.620;2023-05-13T11:47:04;99623.00;;;21.30
69007;BMP180;56061;51.748;19.620;2023-05-13T11:49:48;99618.40;;;21.40
69007;BMP180;56061;51.748;19.620;2023-05-13T11:52:21;99620.60;;;21.30
69007;BMP180;56061;51.748;19.620;2023-05-13T11:54:50;99623.80;;;21.32
69007;BMP180;56061;51.748;19.620;2023-05-13T12:00:05;99619.00;;;21.30
69007;BMP180;56061;51.748;19.620;2023-05-13T12:02:38;99614.40;;;21.42
69007;BMP180;56061;51.748;19.620;2023-05-13T12:05:11;99604.80;;;21.60
69007;BMP180;56061;51.748;19.620;2023-05-13T12:07:38;99608.20;;;21.76
69007;BMP180;56061;51.748;19.620;2023-05-13T12:10:06;99594.20;;;21.90
69007;BMP180;56061;51.748;19.620;2023-05-13T12:12:44;99603.80;;;21.90
69007;BMP180;56061;51.748;19.620;2023-05-13T12:15:14;99605.80;;;21.70
69007;BMP180;56061;51.748;19.620;2023-05-13T12:17:42;99607.00;;;21.50
69007;BMP180;56061;51.748;19.620;2023-05-13T12:20:14;99602.40;;;21.40
69007;BMP180;56061;51.748;19.620;2023-05-13T12:28:24;99598.00;;;21.80
69007;BMP180;56061;51.748;19.620;2023-05-13T12:31:00;99600.00;;;21.80
69007;BMP180;56061;51.748;19.620;2023-05-13T12:36:18;99602.00;;;21.80
69007;BMP180;56061;51.748;19.620;2023-05-13T12:39:02;99602.20;;;21.70
69007;BMP180;56061;51.748;19.620;2023-05-13T12:41:32;99601.60;;;21.60
69007;BMP180;56061;51.748;19.620;2023-05-13T12:44:08;99597.20;;;21.50
69007;BMP180;56061;51.748;19.620;2023-05-13T12:46:36;99599.60;;;21.80
69007;BMP180;56061;51.748;19.620;2023-05-13T12:49:04;99596.60;;;22.04
69007;BMP180;56061;51.748;19.620;2023-05-13T12:51:31;99600.00;;;22.20
69007;BMP180;56061;51.748;19.620;2023-05-13T12:54:00;99597.80;;;22.20
69007;BMP180;56061;51.748;19.620;2023-05-13T12:56:27;99598.40;;;22.10
69007;BMP180;56061;51.748;19.620;2023-05-13T12:58:53;99596.40;;;22.30
69007;BMP180;56061;51.748;19.620;2023-05-13T13:01:20;99593.60;;;22.40
69007;BMP180;56061;51.748;19.620;2023-05-13T13:03:47;99587.80;;;22.50
69007;BMP180;56061;51.748;19.620;2023-05-13T13:06:14;99591.20;;;22.68
69007;BMP180;56061;51.748;19.620;2023-05-13T13:08:41;99590.00;;;22.60
69007;BMP180;56061;51.748;19.620;2023-05-13T13:11:07;99584.00;;;22.52
69007;BMP180;56061;51.748;19.620;2023-05-13T13:13:34;99582.60;;;22.44
69007;BMP180;56061;51.748;19.620;2023-05-13T13:16:04;99587.00;;;22.30
69007;BMP180;56061;51.748;19.620;2023-05-13T13:18:31;99576.80;;;22.20
69007;BMP180;56061;51.748;19.620;2023-05-13T13:20:57;99579.60;;;22.10
69007;BMP180;56061;51.748;19.620;2023-05-13T13:23:24;99583.60;;;21.90
69007;BMP180;56061;51.748;19.620;2023-05-13T13:25:50;99580.60;;;21.80
69007;BMP180;56061;51.748;19.620;2023-05-13T13:28:17;99572.00;;;22.06
69007;BMP180;56061;51.748;19.620;2023-05-13T13:30:44;99567.00;;;22.42
69007;BMP180;56061;51.748;19.620;2023-05-13T13:33:14;99564.40;;;22.84
69007;BMP180;56061;51.748;19.620;2023-05-13T13:35:43;99562.60;;;23.20
69007;BMP180;56061;51.748;19.620;2023-05-13T13:38:10;99558.80;;;23.50
69007;BMP180;56061;51.748;19.620;2023-05-13T13:40:37;99563.60;;;23.78
69007;BMP180;56061;51.748;19.620;2023-05-13T13:43:05;99555.00;;;23.90
69007;BMP180;56061;51.748;19.620;2023-05-13T13:45:33;99564.80;;;23.60
69007;BMP180;56061;51.748;19.620;2023-05-13T13:47:59;99565.00;;;23.58
69007;BMP180;56061;51.748;19.620;2023-05-13T13:50:26;99559.80;;;23.70
69007;BMP180;56061;51.748;19.620;2023-05-13T13:52:52;99560.60;;;23.92
69007;BMP180;56061;51.748;19.620;2023-05-13T13:55:22;99552.60;;;24.00
69007;BMP180;56061;51.748;19.620;2023-05-13T13:57:49;99553.80;;;23.90
69007;BMP180;56061;51.748;19.620;2023-05-13T14:00:16;99552.00;;;23.80
69007;BMP180;56061;51.748;19.620;2023-05-13T14:02:43;99557.60;;;23.94
69007;BMP180;56061;51.748;19.620;2023-05-13T14:05:12;99551.80;;;24.20
69007;BMP180;56061;51.748;19.620;2023-05-13T14:07:39;99548.20;;;24.42
69007;BMP180;56061;51.748;19.620;2023-05-13T14:10:07;99546.60;;;24.80
69007;BMP180;56061;51.748;19.620;2023-05-13T14:12:34;99534.40;;;25.20
69007;BMP180;56061;51.748;19.620;2023-05-13T14:15:03;99544.20;;;25.50
69007;BMP180;56061;51.748;19.620;2023-05-13T14:17:31;99539.60;;;25.70
69007;BMP180;56061;51.748;19.620;2023-05-13T14:19:58;99544.80;;;25.90
69007;BMP180;56061;51.748;19.620;2023-05-13T14:22:24;99544.20;;;26.00
69007;BMP180;56061;51.748;19.620;2023-05-13T14:24:51;99540.60;;;26.10
69007;BMP180;56061;51.748;19.620;2023-05-13T14:27:19;99540.40;;;26.00
69007;BMP180;56061;51.748;19.620;2023-05-13T14:29:47;99535.80;;;26.00
69007;BMP180;56061;51.748;19.620;2023-05-13T14:32:14;99542.00;;;26.08
69007;BMP180;56061;51.748;19.620;2023-05-13T14:34:41;99542.80;;;26.10